sensor_id;sensor_type;location;lat;lon;timestamp;pressure;altitude;pressure_sealevel;temperature
1532;BMP280;759;53.170;8.210;2022-12-16T00:01:37;99945.75;;;-0.95
1532;BMP280;759;53.170;8.210;2022-12-16T00:04:03;99945.94;;;-1.00
1532;BMP280;759;53.170;8.210;2022-12-16T00:06:29;99942.69;;;-0.97
1532;BMP280;759;53.170;8.210;2022-12-16T00:08:55;99949.25;;;-0.91
1532;BMP280;759;53.170;8.210;2022-12-16T00:11:20;99950.75;;;-1.02
1532;BMP280;759;53.170;8.210;2022-12-16T00:13:46;99952.25;;;-1.01
1532;BMP280;759;53.170;8.210;2022-12-16T00:16:12;99955.00;;;-0.98
1532;BMP280;759;53.170;8.210;2022-12-16T00:18:38;99959.06;;;-1.00
1532;BMP280;759;53.170;8.210;2022-12-16T00:21:03;99956.88;;;-0.98
1532;BMP280;759;53.170;8.210;2022-12-16T00:23:28;99960.13;;;-1.01
1532;BMP280;759;53.170;8.210;2022-12-16T00:25:54;99962.13;;;-0.98
1532;BMP280;759;53.170;8.210;2022-12-16T00:28:19;99956.84;;;-1.10
1532;BMP280;759;53.170;8.210;2022-12-16T00:30:50;99954.41;;;-1.15
1532;BMP280;759;53.170;8.210;2022-12-16T00:33:16;99951.78;;;-1.15
1532;BMP280;759;53.170;8.210;2022-12-16T00:35:41;99954.41;;;-1.15
1532;BMP280;759;53.170;8.210;2022-12-16T00:38:07;99957.03;;;-1.15
1532;BMP280;759;53.170;8.210;2022-12-16T00:40:32;99960.50;;;-1.24
1532;BMP280;759;53.170;8.210;2022-12-16T00:42:57;99959.06;;;-1.21
1532;BMP280;759;53.170;8.210;2022-12-16T00:45:23;99957.03;;;-1.15
1532;BMP280;759;53.170;8.210;2022-12-16T00:47:48;99964.44;;;-1.18
1532;BMP280;759;53.170;8.210;2022-12-16T00:50:13;99954.25;;;-1.19
1532;BMP280;759;53.170;8.210;2022-12-16T00:52:39;99955.34;;;-1.20
1532;BMP280;759;53.170;8.210;2022-12-16T00:55:04;99953.94;;;-1.18
1532;BMP280;759;53.170;8.210;2022-12-16T00:57:29;99959.84;;;-1.21
1532;BMP280;759;53.170;8.210;2022-12-16T00:59:54;99952.22;;;-1.13
1532;BMP280;759;53.170;8.210;2022-12-16T01:02:20;99954.41;;;-1.15
1532;BMP280;759;53.170;8.210;2022-12-16T01:04:45;99960.84;;;-1.13
1532;BMP280;759;53.170;8.210;2022-12-16T01:07:10;99953.69;;;-1.25
1532;BMP280;759;53.170;8.210;2022-12-16T01:09:35;99944.75;;;-1.24
1532;BMP280;759;53.170;8.210;2022-12-16T01:12:00;99956.13;;;-1.20
1532;BMP280;759;53.170;8.210;2022-12-16T01:14:26;99950.31;;;-1.25
1532;BMP280;759;53.170;8.210;2022-12-16T01:16:51;99956.63;;;-1.26
1532;BMP280;759;53.170;8.210;2022-12-16T01:19:16;99959.56;;;-1.28
1532;BMP280;759;53.170;8.210;2022-12-16T01:21:41;99958.19;;;-1.25
1532;BMP280;759;53.170;8.210;2022-12-16T01:24:07;99958.94;;;-1.25
1532;BMP280;759;53.170;8.210;2022-12-16T01:26:32;99965.91;;;-1.29
1532;BMP280;759;53.170;8.210;2022-12-16T01:28:57;99973.78;;;-1.29
1532;BMP280;759;53.170;8.210;2022-12-16T01:31:23;99968.69;;;-1.25
1532;BMP280;759;53.170;8.210;2022-12-16T01:33:48;99974.69;;;-1.25
1532;BMP280;759;53.170;8.210;2022-12-16T01:36:13;99976.53;;;-1.25
1532;BMP280;759;53.170;8.210;2022-12-16T01:38:40;99974.88;;;-1.30
1532;BMP280;759;53.170;8.210;2022-12-16T01:41:05;99973.22;;;-1.34
1532;BMP280;759;53.170;8.210;2022-12-16T01:43:32;99970.06;;;-1.28
1532;BMP280;759;53.170;8.210;2022-12-16T01:48:31;99985.81;;;-1.28
1532;BMP280;759;53.170;8.210;2022-12-16T01:51:00;99982.25;;;-1.23
1532;BMP280;759;53.170;8.210;2022-12-16T01:53:27;99990.44;;;-1.25
1532;BMP280;759;53.170;8.210;2022-12-16T01:55:52;99991.31;;;-1.21
1532;BMP280;759;53.170;8.210;2022-12-16T01:58:23;99991.84;;;-1.27
1532;BMP280;759;53.170;8.210;2022-12-16T02:00:49;100005.78;;;-1.14
1532;BMP280;759;53.170;8.210;2022-12-16T02:03:15;100006.44;;;-1.18
1532;BMP280;759;53.170;8.210;2022-12-16T02:05:40;100003.16;;;-1.14
1532;BMP280;759;53.170;8.210;2022-12-16T02:10:38;100010.41;;;-1.11
1532;BMP280;759;53.170;8.210;2022-12-16T02:21:17;100012.47;;;-1.17
1532;BMP280;759;53.170;8.210;2022-12-16T02:26:18;100003.81;;;-1.18
1532;BMP280;759;53.170;8.210;2022-12-16T02:31:17;100010.16;;;-1.19
1532;BMP280;759;53.170;8.210;2022-12-16T02:33:46;100012.31;;;-1.21
1532;BMP280;759;53.170;8.210;2022-12-16T02:36:17;100006.44;;;-1.18
1532;BMP280;759;53.170;8.210;2022-12-16T02:43:56;100005.44;;;-1.04
1532;BMP280;759;53.170;8.210;2022-12-16T02:46:24;100007.59;;;-1.06
1532;BMP280;759;53.170;8.210;2022-12-16T02:48:49;100009.25;;;-1.02
1532;BMP280;759;53.170;8.210;2022-12-16T02:51:15;100015.28;;;-1.01
1532;BMP280;759;53.170;8.210;2022-12-16T02:53:40;100021.44;;;-0.97
1532;BMP280;759;53.170;8.210;2022-12-16T03:01:24;100030.41;;;-0.98
1532;BMP280;759;53.170;8.210;2022-12-16T03:03:46;100004.28;;;-1.15
1532;BMP280;759;53.170;8.210;2022-12-16T03:06:13;100030.66;;;-0.91
1532;BMP280;759;53.170;8.210;2022-12-16T03:08:41;100026.03;;;-0.94
1532;BMP280;759;53.170;8.210;2022-12-16T03:11:09;100034.25;;;-0.95
1532;BMP280;759;53.170;8.210;2022-12-16T03:13:40;100033.28;;;-0.91
1532;BMP280;759;53.170;8.210;2022-12-16T03:16:06;100032.19;;;-0.90
1532;BMP280;759;53.170;8.210;2022-12-16T03:18:33;100037.44;;;-0.90
1532;BMP280;759;53.170;8.210;2022-12-16T03:21:00;100037.88;;;-0.88
1532;BMP280;759;53.170;8.210;2022-12-16T03:23:28;100036.06;;;-0.87
1532;BMP280;759;53.170;8.210;2022-12-16T03:25:55;100038.03;;;-0.84
1532;BMP280;759;53.170;8.210;2022-12-16T03:33:46;100054.88;;;-0.85
1532;BMP280;759;53.170;8.210;2022-12-16T03:36:15;100047.44;;;-0.83
1532;BMP280;759;53.170;8.210;2022-12-16T03:38:40;100056.63;;;-0.89
1532;BMP280;759;53.170;8.210;2022-12-16T03:41:07;100052.13;;;-0.89
1532;BMP280;759;53.170;8.210;2022-12-16T03:43:33;100052.88;;;-0.88
1532;BMP280;759;53.170;8.210;2022-12-16T03:46:00;100051.16;;;-0.84
1532;BMP280;759;53.170;8.210;2022-12-16T03:48:26;100054.09;;;-0.86
1532;BMP280;759;53.170;8.210;2022-12-16T03:50:51;100062.25;;;-0.79
1532;BMP280;759;53.170;8.210;2022-12-16T03:53:17;100065.06;;;-0.84
1532;BMP280;759;53.170;8.210;2022-12-16T03:55:42;100057.19;;;-0.84
1532;BMP280;759;53.170;8.210;2022-12-16T03:58:07;100063.72;;;-0.90
1532;BMP280;759;53.170;8.210;2022-12-16T04:00:33;100063.06;;;-0.87
1532;BMP280;759;53.170;8.210;2022-12-16T04:02:58;100060.44;;;-0.87
1532;BMP280;759;53.170;8.210;2022-12-16T04:05:23;100061.97;;;-0.86
1532;BMP280;759;53.170;8.210;2022-12-16T04:07:48;100067.22;;;-0.86
1532;BMP280;759;53.170;8.210;2022-12-16T04:10:13;100077.72;;;-0.86
1532;BMP280;759;53.170;8.210;2022-12-16T04:12:39;100071.41;;;-0.85
1532;BMP280;759;53.170;8.210;2022-12-16T04:15:22;100077.41;;;-0.84
1532;BMP280;759;53.170;8.210;2022-12-16T04:18:12;100076.22;;;-0.87
1532;BMP280;759;53.170;8.210;2022-12-16T04:20:57;100082.22;;;-0.86
1532;BMP280;759;53.170;8.210;2022-12-16T04:23:44;100089.97;;;-0.90
1532;BMP280;759;53.170;8.210;2022-12-16T04:26:29;100092.41;;;-0.85
1532;BMP280;759;53.170;8.210;2022-12-16T04:28:54;100090.47;;;-0.96
1532;BMP280;759;53.170;8.210;2022-12-16T04:31:19;100091.69;;;-0.94
1532;BMP280;759;53.170;8.210;2022-12-16T04:33:44;100093.56;;;-0.94
1532;BMP280;759;53.170;8.210;2022-12-16T04:36:28;100099.56;;;-0.94
1532;BMP280;759;53.170;8.210;2022-12-16T04:39:12;100097.84;;;-0.90
1532;BMP280;759;53.170;8.210;2022-12-16T04:41:56;100096.63;;;-0.92
1532;BMP280;759;53.170;8.210;2022-12-16T04:44:40;100102.66;;;-0.92
1532;BMP280;759;53.170;8.210;2022-12-16T04:47:24;100108.34;;;-0.90
1532;BMP280;759;53.170;8.210;2022-12-16T04:50:08;100113.88;;;-0.83
1532;BMP280;759;53.170;8.210;2022-12-16T04:52:52;100113.88;;;-0.83
1532;BMP280;759;53.170;8.210;2022-12-16T04:55:36;100111.88;;;-0.86
1532;BMP280;759;53.170;8.210;2022-12-16T04:58:20;100111.25;;;-0.83
1532;BMP280;759;53.170;8.210;2022-12-16T05:01:04;100105.09;;;-0.87
1532;BMP280;759;53.170;8.210;2022-12-16T05:03:47;100109.59;;;-0.87
1532;BMP280;759;53.170;8.210;2022-12-16T05:06:31;100114.06;;;-0.88
1532;BMP280;759;53.170;8.210;2022-12-16T05:09:15;100112.53;;;-0.89
1532;BMP280;759;53.170;8.210;2022-12-16T05:11:59;100116.69;;;-0.88
1532;BMP280;759;53.170;8.210;2022-12-16T05:14:43;100125.34;;;-0.87
1532;BMP280;759;53.170;8.210;2022-12-16T05:17:27;100121.31;;;-0.85
1532;BMP280;759;53.170;8.210;2022-12-16T05:20:11;100121.47;;;-0.90
1532;BMP280;759;53.170;8.210;2022-12-16T05:22:55;100130.47;;;-0.91
1532;BMP280;759;53.170;8.210;2022-12-16T05:25:39;100129.81;;;-0.88
1532;BMP280;759;53.170;8.210;2022-12-16T05:28:23;100129.94;;;-0.84
1532;BMP280;759;53.170;8.210;2022-12-16T05:31:07;100138.78;;;-0.89
1532;BMP280;759;53.170;8.210;2022-12-16T05:33:51;100137.09;;;-0.93
1532;BMP280;759;53.170;8.210;2022-12-16T05:36:35;100149.91;;;-0.92
1532;BMP280;759;53.170;8.210;2022-12-16T05:39:19;100152.22;;;-0.90
1532;BMP280;759;53.170;8.210;2022-12-16T05:42:03;100146.53;;;-0.92
1532;BMP280;759;53.170;8.210;2022-12-16T05:44:47;100160.41;;;-0.92
1532;BMP280;759;53.170;8.210;2022-12-16T05:47:31;100157.34;;;-0.94
1532;BMP280;759;53.170;8.210;2022-12-16T05:50:15;100168.75;;;-0.90
1532;BMP280;759;53.170;8.210;2022-12-16T05:52:59;100169.66;;;-0.86
1532;BMP280;759;53.170;8.210;2022-12-16T05:55:43;100167.03;;;-0.86
1532;BMP280;759;53.170;8.210;2022-12-16T05:58:27;100171.97;;;-0.84
1532;BMP280;759;53.170;8.210;2022-12-16T06:01:11;100174.28;;;-0.83
1532;BMP280;759;53.170;8.210;2022-12-16T06:04:02;100176.91;;;-0.83
1532;BMP280;759;53.170;8.210;2022-12-16T06:06:46;100178.63;;;-0.87
1532;BMP280;759;53.170;8.210;2022-12-16T06:09:30;100178.34;;;-0.94
1532;BMP280;759;53.170;8.210;2022-12-16T06:12:13;100179.25;;;-0.90
1532;BMP280;759;53.170;8.210;2022-12-16T06:14:57;100183.59;;;-0.94
1532;BMP280;759;53.170;8.210;2022-12-16T06:17:42;100189.31;;;-0.92
1532;BMP280;759;53.170;8.210;2022-12-16T06:20:26;100180.97;;;-0.94
1532;BMP280;759;53.170;8.210;2022-12-16T06:23:10;100191.03;;;-0.96
1532;BMP280;759;53.170;8.210;2022-12-16T06:25:54;100191.03;;;-0.96
1532;BMP280;759;53.170;8.210;2022-12-16T06:28:38;100194.75;;;-0.97
1532;BMP280;759;53.170;8.210;2022-12-16T06:31:22;100198.47;;;-0.98
1532;BMP280;759;53.170;8.210;2022-12-16T06:34:05;100203.72;;;-0.98
1532;BMP280;759;53.170;8.210;2022-12-16T06:36:50;100205.72;;;-0.95
1532;BMP280;759;53.170;8.210;2022-12-16T06:39:33;100217.28;;;-0.96
1532;BMP280;759;53.170;8.210;2022-12-16T06:42:17;100222.09;;;-0.98
1532;BMP280;759;53.170;8.210;2022-12-16T06:45:01;100222.53;;;-0.96
1532;BMP280;759;53.170;8.210;2022-12-16T06:47:45;100223.59;;;-0.88
1532;BMP280;759;53.170;8.210;2022-12-16T06:50:29;100231.31;;;-0.92
1532;BMP280;759;53.170;8.210;2022-12-16T06:53:13;100233.03;;;-0.96
1532;BMP280;759;53.170;8.210;2022-12-16T06:55:57;100236.13;;;-0.94
1532;BMP280;759;53.170;8.210;2022-12-16T06:58:41;100239.66;;;-0.90
1532;BMP280;759;53.170;8.210;2022-12-16T07:01:25;100245.09;;;-0.95
1532;BMP280;759;53.170;8.210;2022-12-16T07:04:09;100253.13;;;-0.91
1532;BMP280;759;53.170;8.210;2022-12-16T07:06:53;100243.56;;;-0.96
1532;BMP280;759;53.170;8.210;2022-12-16T07:09:37;100249.72;;;-0.92
1532;BMP280;759;53.170;8.210;2022-12-16T07:12:21;100248.19;;;-0.93
1532;BMP280;759;53.170;8.210;2022-12-16T07:15:05;100262.53;;;-0.90
1532;BMP280;759;53.170;8.210;2022-12-16T07:17:49;100268.84;;;-0.83
1532;BMP280;759;53.170;8.210;2022-12-16T07:20:33;100269.66;;;-0.91
1532;BMP280;759;53.170;8.210;2022-12-16T07:23:17;100274.44;;;-0.93
1532;BMP280;759;53.170;8.210;2022-12-16T07:26:01;100278.28;;;-0.90
1532;BMP280;759;53.170;8.210;2022-12-16T07:28:45;100278.44;;;-0.87
1532;BMP280;759;53.170;8.210;2022-12-16T07:31:29;100288.78;;;-0.82
1532;BMP280;759;53.170;8.210;2022-12-16T07:34:12;100304.34;;;-0.76
1532;BMP280;759;53.170;8.210;2022-12-16T07:36:56;100305.75;;;-0.79
1532;BMP280;759;53.170;8.210;2022-12-16T07:39:40;100313.94;;;-0.72
1532;BMP280;759;53.170;8.210;2022-12-16T07:42:24;100324.13;;;-0.70
1532;BMP280;759;53.170;8.210;2022-12-16T07:45:09;100331.81;;;-0.65
1532;BMP280;759;53.170;8.210;2022-12-16T07:47:52;100333.59;;;-0.78
1532;BMP280;759;53.170;8.210;2022-12-16T07:50:36;100331.41;;;-0.76
1532;BMP280;759;53.170;8.210;2022-12-16T07:53:20;100338.66;;;-0.73
1532;BMP280;759;53.170;8.210;2022-12-16T07:56:04;100342.97;;;-0.68
1532;BMP280;759;53.170;8.210;2022-12-16T07:58:59;100354.09;;;-0.71
1532;BMP280;759;53.170;8.210;2022-12-16T08:01:43;100325.41;;;-0.94
1532;BMP280;759;53.170;8.210;2022-12-16T08:04:26;100361.53;;;-0.82
1532;BMP280;759;53.170;8.210;2022-12-16T08:07:10;100362.63;;;-0.83
1532;BMP280;759;53.170;8.210;2022-12-16T08:09:54;100362.19;;;-0.94
1532;BMP280;759;53.170;8.210;2022-12-16T08:12:38;100365.13;;;-0.95
1532;BMP280;759;53.170;8.210;2022-12-16T08:15:22;100369.91;;;-0.98
1532;BMP280;759;53.170;8.210;2022-12-16T08:18:06;100370.22;;;-0.99
1532;BMP280;759;53.170;8.210;2022-12-16T08:20:50;100375.47;;;-0.99
1532;BMP280;759;53.170;8.210;2022-12-16T08:23:34;100387.69;;;-0.94
1532;BMP280;759;53.170;8.210;2022-12-16T08:26:18;100388.13;;;-0.92
1532;BMP280;759;53.170;8.210;2022-12-16T08:29:02;100399.88;;;-0.90
1532;BMP280;759;53.170;8.210;2022-12-16T08:31:46;100394.63;;;-0.90
1532;BMP280;759;53.170;8.210;2022-12-16T08:34:30;100398.78;;;-0.98
1532;BMP280;759;53.170;8.210;2022-12-16T08:37:14;100405.91;;;-0.98
1532;BMP280;759;53.170;8.210;2022-12-16T08:39:58;100408.69;;;-0.94
1532;BMP280;759;53.170;8.210;2022-12-16T08:42:42;100413.78;;;-0.89
1532;BMP280;759;53.170;8.210;2022-12-16T08:45:26;100416.41;;;-0.89
1532;BMP280;759;53.170;8.210;2022-12-16T08:48:10;100430.78;;;-0.87
1532;BMP280;759;53.170;8.210;2022-12-16T08:50:54;100434.00;;;-0.81
1532;BMP280;759;53.170;8.210;2022-12-16T08:53:38;100431.09;;;-0.80
1532;BMP280;759;53.170;8.210;2022-12-16T08:56:21;100431.22;;;-0.67
1532;BMP280;759;53.170;8.210;2022-12-16T08:59:05;100434.47;;;-0.70
1532;BMP280;759;53.170;8.210;2022-12-16T09:01:49;100440.00;;;-0.63
1532;BMP280;759;53.170;8.210;2022-12-16T09:04:33;100444.34;;;-0.59
1532;BMP280;759;53.170;8.210;2022-12-16T09:07:17;100445.56;;;-0.56
1532;BMP280;759;53.170;8.210;2022-12-16T09:10:01;100448.03;;;-0.51
1532;BMP280;759;53.170;8.210;2022-12-16T09:12:45;100448.50;;;-0.49
1532;BMP280;759;53.170;8.210;2022-12-16T09:15:29;100456.03;;;-0.39
1532;BMP280;759;53.170;8.210;2022-12-16T09:18:13;100459.28;;;-0.33
1532;BMP280;759;53.170;8.210;2022-12-16T09:20:57;100466.53;;;-0.39
1532;BMP280;759;53.170;8.210;2022-12-16T09:23:41;100473.66;;;-0.39
1532;BMP280;759;53.170;8.210;2022-12-16T09:26:25;100471.66;;;-0.42
1532;BMP280;759;53.170;8.210;2022-12-16T09:29:09;100473.22;;;-0.41
1532;BMP280;759;53.170;8.210;2022-12-16T09:31:53;100485.28;;;-0.31
1532;BMP280;759;53.170;8.210;2022-12-16T09:34:37;100482.31;;;-0.21
1532;BMP280;759;53.170;8.210;2022-12-16T09:37:21;100487.56;;;-0.21
1532;BMP280;759;53.170;8.210;2022-12-16T09:40:05;100487.09;;;-0.14
1532;BMP280;759;53.170;8.210;2022-12-16T09:42:50;100489.41;;;-0.13
1532;BMP280;759;53.170;8.210;2022-12-16T09:45:48;100488.00;;;-0.02
1532;BMP280;759;53.170;8.210;2022-12-16T09:51:36;100501.31;;;-0.07
1532;BMP280;759;53.170;8.210;2022-12-16T09:54:20;100504.38;;;0.04
1532;BMP280;759;53.170;8.210;2022-12-16T09:57:06;100503.88;;;0.11
1532;BMP280;759;53.170;8.210;2022-12-16T10:00:04;100503.56;;;0.12
1532;BMP280;759;53.170;8.210;2022-12-16T10:02:49;100513.59;;;0.19
1532;BMP280;759;53.170;8.210;2022-12-16T10:05:57;100515.22;;;0.32
1532;BMP280;759;53.170;8.210;2022-12-16T10:08:41;100519.16;;;0.47
1532;BMP280;759;53.170;8.210;2022-12-16T10:11:43;100518.69;;;0.54
1532;BMP280;759;53.170;8.210;2022-12-16T10:14:33;100520.88;;;0.52
1532;BMP280;759;53.170;8.210;2022-12-16T10:17:21;100521.59;;;0.61
1532;BMP280;759;53.170;8.210;2022-12-16T10:20:06;100520.59;;;0.74
1532;BMP280;759;53.170;8.210;2022-12-16T10:22:57;100521.59;;;0.61
1532;BMP280;759;53.170;8.210;2022-12-16T10:28:59;100529.84;;;0.81
1532;BMP280;759;53.170;8.210;2022-12-16T10:31:44;100538.47;;;0.90
1532;BMP280;759;53.170;8.210;2022-12-16T10:34:29;100545.00;;;0.84
1532;BMP280;759;53.170;8.210;2022-12-16T10:37:15;100541.09;;;0.90
1532;BMP280;759;53.170;8.210;2022-12-16T10:40:00;100548.56;;;0.88
1532;BMP280;759;53.170;8.210;2022-12-16T10:42:47;100552.09;;;0.92
1532;BMP280;759;53.170;8.210;2022-12-16T10:45:37;100558.13;;;0.92
1532;BMP280;759;53.170;8.210;2022-12-16T10:48:23;100558.31;;;1.08
1532;BMP280;759;53.170;8.210;2022-12-16T10:51:11;100552.09;;;1.13
1532;BMP280;759;53.170;8.210;2022-12-16T10:53:55;100558.06;;;1.01
1532;BMP280;759;53.170;8.210;2022-12-16T10:56:49;100552.91;;;1.05
1532;BMP280;759;53.170;8.210;2022-12-16T10:59:36;100556.34;;;1.05
1532;BMP280;759;53.170;8.210;2022-12-16T11:02:22;100560.50;;;1.06
1532;BMP280;759;53.170;8.210;2022-12-16T11:08:30;100560.50;;;1.06
1532;BMP280;759;53.170;8.210;2022-12-16T11:20:21;100571.88;;;0.98
1532;BMP280;759;53.170;8.210;2022-12-16T11:23:18;100567.06;;;1.00
1532;BMP280;759;53.170;8.210;2022-12-16T11:26:13;100570.44;;;0.79
1532;BMP280;759;53.170;8.210;2022-12-16T11:29:01;100570.56;;;0.83
1532;BMP280;759;53.170;8.210;2022-12-16T11:31:46;100571.34;;;0.84
1532;BMP280;759;53.170;8.210;2022-12-16T11:34:31;100569.44;;;0.93
1532;BMP280;759;53.170;8.210;2022-12-16T11:37:15;100572.50;;;0.95
1532;BMP280;759;53.170;8.210;2022-12-16T11:39:59;100577.47;;;0.96
1532;BMP280;759;53.170;8.210;2022-12-16T11:42:43;100573.69;;;1.06
1532;BMP280;759;53.170;8.210;2022-12-16T11:45:27;100574.56;;;1.10
1532;BMP280;759;53.170;8.210;2022-12-16T11:48:15;100578.59;;;1.16
1532;BMP280;759;53.170;8.210;2022-12-16T11:51:01;100584.34;;;1.10
1532;BMP280;759;53.170;8.210;2022-12-16T11:53:49;100579.22;;;1.13
1532;BMP280;759;53.170;8.210;2022-12-16T11:56:39;100586.06;;;1.14
1532;BMP280;759;53.170;8.210;2022-12-16T11:59:40;100582.97;;;1.12
1532;BMP280;759;53.170;8.210;2022-12-16T12:05:40;100578.06;;;1.02
1532;BMP280;759;53.170;8.210;2022-12-16T12:11:21;100588.75;;;1.27
1532;BMP280;759;53.170;8.210;2022-12-16T12:22:38;100600.41;;;1.38
1532;BMP280;759;53.170;8.210;2022-12-16T12:31:17;100599.78;;;1.41
1532;BMP280;759;53.170;8.210;2022-12-16T12:36:50;100596.31;;;1.49
1532;BMP280;759;53.170;8.210;2022-12-16T12:42:26;100602.59;;;1.36
1532;BMP280;759;53.170;8.210;2022-12-16T12:45:36;100601.09;;;1.35
1532;BMP280;759;53.170;8.210;2022-12-16T12:48:25;100606.59;;;1.42
1532;BMP280;759;53.170;8.210;2022-12-16T12:51:24;100607.47;;;1.46
1532;BMP280;759;53.170;8.210;2022-12-16T12:54:18;100607.75;;;1.53
1532;BMP280;759;53.170;8.210;2022-12-16T12:57:06;100613.03;;;1.53
1532;BMP280;759;53.170;8.210;2022-12-16T13:00:16;100610.47;;;1.45
1532;BMP280;759;53.170;8.210;2022-12-16T13:05:44;100621.31;;;1.64
1532;BMP280;759;53.170;8.210;2022-12-16T13:08:30;100620.09;;;1.62
1532;BMP280;759;53.170;8.210;2022-12-16T13:11:14;100623.28;;;1.67
1532;BMP280;759;53.170;8.210;2022-12-16T13:13:58;100613.84;;;1.66
1532;BMP280;759;53.170;8.210;2022-12-16T13:28:22;100631.88;;;1.64
1532;BMP280;759;53.170;8.210;2022-12-16T13:31:07;100637.59;;;1.45
1532;BMP280;759;53.170;8.210;2022-12-16T13:33:51;100636.03;;;1.44
1532;BMP280;759;53.170;8.210;2022-12-16T13:36:36;100631.06;;;1.43
1532;BMP280;759;53.170;8.210;2022-12-16T13:39:27;100642.09;;;1.45
1532;BMP280;759;53.170;8.210;2022-12-16T13:42:31;100635.13;;;1.40
1532;BMP280;759;53.170;8.210;2022-12-16T13:45:15;100635.69;;;1.33
1532;BMP280;759;53.170;8.210;2022-12-16T13:48:00;100637.59;;;1.45
1532;BMP280;759;53.170;8.210;2022-12-16T13:50:45;100637.47;;;1.42
1532;BMP280;759;53.170;8.210;2022-12-16T13:53:30;100639.28;;;1.29
1532;BMP280;759;53.170;8.210;2022-12-16T13:56:22;100646.09;;;1.30
1532;BMP280;759;53.170;8.210;2022-12-16T13:59:14;100645.38;;;1.21
1532;BMP280;759;53.170;8.210;2022-12-16T14:02:42;100645.97;;;1.26
1532;BMP280;759;53.170;8.210;2022-12-16T14:05:13;100646.53;;;1.11
1532;BMP280;759;53.170;8.210;2022-12-16T14:07:57;100655.50;;;1.10
1532;BMP280;759;53.170;8.210;2022-12-16T14:10:41;100657.50;;;1.13
1532;BMP280;759;53.170;8.210;2022-12-16T14:21:59;100679.28;;;1.01
1532;BMP280;759;53.170;8.210;2022-12-16T14:24:47;100681.25;;;1.04
1532;BMP280;759;53.170;8.210;2022-12-16T14:27:31;100695.41;;;0.91
1532;BMP280;759;53.170;8.210;2022-12-16T14:30:24;100690.34;;;0.86
1532;BMP280;759;53.170;8.210;2022-12-16T14:33:24;100693.59;;;0.83
1532;BMP280;759;53.170;8.210;2022-12-16T14:36:42;100699.31;;;0.85
1532;BMP280;759;53.170;8.210;2022-12-16T14:39:20;100700.28;;;0.71
1532;BMP280;759;53.170;8.210;2022-12-16T14:42:24;100705.09;;;0.69
1532;BMP280;759;53.170;8.210;2022-12-16T14:51:18;100707.28;;;0.58
1532;BMP280;759;53.170;8.210;2022-12-16T14:54:15;100703.91;;;0.49
1532;BMP280;759;53.170;8.210;2022-12-16T14:56:59;100710.56;;;0.38
1532;BMP280;759;53.170;8.210;2022-12-16T14:59:43;100711.81;;;0.41
1532;BMP280;759;53.170;8.210;2022-12-16T15:02:28;100714.59;;;0.35
1532;BMP280;759;53.170;8.210;2022-12-16T15:05:17;100713.53;;;0.36
1532;BMP280;759;53.170;8.210;2022-12-16T15:08:01;100722.06;;;0.25
1532;BMP280;759;53.170;8.210;2022-12-16T15:10:45;100724.25;;;0.14
1532;BMP280;759;53.170;8.210;2022-12-16T15:13:29;100722.09;;;0.16
1532;BMP280;759;53.170;8.210;2022-12-16T15:16:14;100725.63;;;0.11
1532;BMP280;759;53.170;8.210;2022-12-16T15:19:04;100729.22;;;0.15
1532;BMP280;759;53.170;8.210;2022-12-16T15:21:48;100732.78;;;0.02
1532;BMP280;759;53.170;8.210;2022-12-16T15:24:34;100737.88;;;-0.02
1532;BMP280;759;53.170;8.210;2022-12-16T15:33:10;100742.81;;;-0.09
1532;BMP280;759;53.170;8.210;2022-12-16T15:36:01;100746.34;;;-0.13
1532;BMP280;759;53.170;8.210;2022-12-16T15:38:45;100744.53;;;-0.13
1532;BMP280;759;53.170;8.210;2022-12-16T15:41:31;100750.72;;;-0.09
1532;BMP280;759;53.170;8.210;2022-12-16T15:44:17;100754.25;;;-0.13
1532;BMP280;759;53.170;8.210;2022-12-16T15:47:01;100749.78;;;-0.13
1532;BMP280;759;53.170;8.210;2022-12-16T15:49:45;100751.31;;;-0.21
1532;BMP280;759;53.170;8.210;2022-12-16T15:52:34;100759.50;;;-0.22
1532;BMP280;759;53.170;8.210;2022-12-16T15:55:38;100752.69;;;-0.23
1532;BMP280;759;53.170;8.210;2022-12-16T15:58:30;100761.50;;;-0.28
1532;BMP280;759;53.170;8.210;2022-12-16T16:01:15;100758.56;;;-0.26
1532;BMP280;759;53.170;8.210;2022-12-16T16:03:59;100764.94;;;-0.18
1532;BMP280;759;53.170;8.210;2022-12-16T16:06:47;100763.03;;;-0.27
1532;BMP280;759;53.170;8.210;2022-12-16T16:09:32;100765.53;;;-0.30
1532;BMP280;759;53.170;8.210;2022-12-16T16:12:17;100760.97;;;-0.39
1532;BMP280;759;53.170;8.210;2022-12-16T16:15:08;100771.50;;;-0.39
1532;BMP280;759;53.170;8.210;2022-12-16T16:17:54;100774.59;;;-0.36
1532;BMP280;759;53.170;8.210;2022-12-16T16:20:38;100769.50;;;-0.33
1532;BMP280;759;53.170;8.210;2022-12-16T16:23:22;100775.22;;;-0.40
1532;BMP280;759;53.170;8.210;2022-12-16T16:26:09;100777.22;;;-0.36
1532;BMP280;759;53.170;8.210;2022-12-16T16:28:53;100780.47;;;-0.40
1532;BMP280;759;53.170;8.210;2022-12-16T16:31:37;100776.28;;;-0.41
1532;BMP280;759;53.170;8.210;2022-12-16T16:34:21;100780.91;;;-0.46
1532;BMP280;759;53.170;8.210;2022-12-16T16:37:12;100785.41;;;-0.47
1532;BMP280;759;53.170;8.210;2022-12-16T16:39:56;100792.34;;;-0.42
1532;BMP280;759;53.170;8.210;2022-12-16T16:42:40;100789.44;;;-0.41
1532;BMP280;759;53.170;8.210;2022-12-16T16:45:24;100792.06;;;-0.41
1532;BMP280;759;53.170;8.210;2022-12-16T16:48:09;100793.75;;;-0.45
1532;BMP280;759;53.170;8.210;2022-12-16T16:50:57;100795.91;;;-0.47
1532;BMP280;759;53.170;8.210;2022-12-16T16:53:41;100807.66;;;-0.44
1532;BMP280;759;53.170;8.210;2022-12-16T16:56:25;100808.13;;;-0.42
1532;BMP280;759;53.170;8.210;2022-12-16T16:59:10;100806.44;;;-0.47
1532;BMP280;759;53.170;8.210;2022-12-16T17:01:54;100810.13;;;-0.48
1532;BMP280;759;53.170;8.210;2022-12-16T17:04:38;100808.59;;;-0.49
1532;BMP280;759;53.170;8.210;2022-12-16T17:07:22;100801.75;;;-0.50
1532;BMP280;759;53.170;8.210;2022-12-16T17:10:06;100807.63;;;-0.53
1532;BMP280;759;53.170;8.210;2022-12-16T17:12:50;100805.94;;;-0.49
1532;BMP280;759;53.170;8.210;2022-12-16T17:15:34;100802.41;;;-0.44
1532;BMP280;759;53.170;8.210;2022-12-16T17:18:18;100807.34;;;-0.43
1532;BMP280;759;53.170;8.210;2022-12-16T17:21:02;100806.88;;;-0.45
1532;BMP280;759;53.170;8.210;2022-12-16T17:23:46;100809.19;;;-0.52
1532;BMP280;759;53.170;8.210;2022-12-16T17:26:29;100816.88;;;-0.55
1532;BMP280;759;53.170;8.210;2022-12-16T17:29:14;100820.31;;;-0.55
1532;BMP280;759;53.170;8.210;2022-12-16T17:32:00;100820.50;;;-0.51
1532;BMP280;759;53.170;8.210;2022-12-16T17:34:44;100831.78;;;-0.51
1532;BMP280;759;53.170;8.210;2022-12-16T17:37:28;100832.19;;;-0.57
1532;BMP280;759;53.170;8.210;2022-12-16T17:40:12;100832.34;;;-0.63
1532;BMP280;759;53.170;8.210;2022-12-16T17:42:56;100829.53;;;-0.66
1532;BMP280;759;53.170;8.210;2022-12-16T17:45:40;100835.09;;;-0.68
1532;BMP280;759;53.170;8.210;2022-12-16T17:48:24;100841.13;;;-0.67
1532;BMP280;759;53.170;8.210;2022-12-16T17:51:08;100848.53;;;-0.69
1532;BMP280;759;53.170;8.210;2022-12-16T17:53:52;100852.72;;;-0.68